createdAt,value
2022-10-15T00:01:56.427Z,5.37
2022-10-15T00:04:03.713Z,5.35
2022-10-15T00:06:09.867Z,5.34
2022-10-15T00:08:15.648Z,5.32
2022-10-15T00:10:23.386Z,5.31
2022-10-15T00:12:30.474Z,5.34
2022-10-15T00:14:35.680Z,5.33
2022-10-15T00:16:41.273Z,5.29
2022-10-15T00:18:46.741Z,5.27
2022-10-15T00:20:52.415Z,5.28
2022-10-15T00:22:57.427Z,5.3
2022-10-15T00:25:03.597Z,5.35
2022-10-15T00:27:08.617Z,5.37
2022-10-15T00:29:16.160Z,5.38
2022-10-15T00:31:21.373Z,5.39
2022-10-15T00:33:26.602Z,5.41
2022-10-15T00:35:31.897Z,5.43
2022-10-15T00:37:37.154Z,5.44
2022-10-15T00:39:42.621Z,5.43
2022-10-15T00:41:47.594Z,5.41
2022-10-15T00:43:52.822Z,5.41
2022-10-15T00:45:59.332Z,5.41
2022-10-15T00:48:04.594Z,5.42
2022-10-15T00:50:10.603Z,5.42
2022-10-15T00:52:18.019Z,5.44
2022-10-15T00:54:28.799Z,5.48
2022-10-15T00:56:33.891Z,5.51
2022-10-15T00:58:40.373Z,5.54
2022-10-15T01:00:45.430Z,5.58
2022-10-15T01:02:51.246Z,5.63
2022-10-15T01:07:22.290Z,5.74
2022-10-15T01:09:27.665Z,5.79
2022-10-15T01:11:34.022Z,5.83
2022-10-15T01:13:39.213Z,5.9
2022-10-15T01:15:44.317Z,5.97
2022-10-15T01:17:49.461Z,6.04
2022-10-15T01:19:54.989Z,6.13
2022-10-15T01:22:00.081Z,6.2
2022-10-15T01:24:05.816Z,6.29
2022-10-15T01:26:11.232Z,6.33
2022-10-15T01:28:18.452Z,6.4
2022-10-15T01:30:23.746Z,6.45
2022-10-15T01:32:29.197Z,6.47
2022-10-15T01:34:34.419Z,6.48
2022-10-15T01:36:39.576Z,6.47
2022-10-15T01:38:45.432Z,6.44
2022-10-15T01:40:50.769Z,6.4
2022-10-15T01:42:55.832Z,6.31
2022-10-15T01:45:00.827Z,6.26
2022-10-15T01:47:06.157Z,6.23
2022-10-15T01:49:11.576Z,6.15
2022-10-15T01:51:16.715Z,6.08
2022-10-15T01:53:21.886Z,5.99
2022-10-15T01:55:28.159Z,5.93
2022-10-15T01:57:33.515Z,5.87
2022-10-15T01:59:38.616Z,5.8
2022-10-15T02:03:49.042Z,5.79
2022-10-15T02:05:54.155Z,5.79
2022-10-15T02:08:02.636Z,5.78
2022-10-15T02:10:08.812Z,5.72
2022-10-15T02:12:14.262Z,5.72
2022-10-15T02:14:19.538Z,5.78
2022-10-15T02:16:24.920Z,5.78
2022-10-15T02:18:31.036Z,5.82
2022-10-15T02:20:37.196Z,5.8
2022-10-15T02:22:43.321Z,5.75
2022-10-15T02:24:51.660Z,5.79
2022-10-15T02:26:59.835Z,5.77
2022-10-15T02:29:05.323Z,5.72
2022-10-15T02:31:14.161Z,5.71
2022-10-15T02:33:19.275Z,5.68
2022-10-15T02:35:24.757Z,5.71
2022-10-15T02:37:29.827Z,5.69
2022-10-15T02:39:39.027Z,5.65
2022-10-15T02:41:44.475Z,5.65
2022-10-15T02:43:49.939Z,5.64
2022-10-15T02:46:00.719Z,5.62
2022-10-15T02:48:06.396Z,5.58
2022-10-15T02:50:11.624Z,5.53
2022-10-15T02:52:16.516Z,5.46
2022-10-15T02:54:21.780Z,5.4
2022-10-15T02:56:27.024Z,5.41
2022-10-15T02:58:33.452Z,5.39
2022-10-15T03:00:38.998Z,5.39
2022-10-15T03:02:47.840Z,5.4
2022-10-15T03:04:54.239Z,5.39
2022-10-15T03:06:59.743Z,5.36
2022-10-15T03:09:05.230Z,5.38
2022-10-15T03:11:10.412Z,5.37
2022-10-15T03:13:15.446Z,5.36
2022-10-15T03:15:21.730Z,5.37
2022-10-15T03:17:27.304Z,5.37
2022-10-15T03:19:32.375Z,5.36
2022-10-15T03:21:37.710Z,5.43
2022-10-15T03:23:43.397Z,5.5
2022-10-15T03:25:48.896Z,5.56
2022-10-15T03:27:54.019Z,5.64
2022-10-15T03:29:59.137Z,5.73
2022-10-15T03:32:05.337Z,5.85
2022-10-15T03:34:10.455Z,5.94
2022-10-15T03:36:16.670Z,5.99
2022-10-15T03:38:22.091Z,6.1
2022-10-15T03:40:27.245Z,6.13
2022-10-15T03:42:35.945Z,6.17
2022-10-15T03:44:42.408Z,6.16
2022-10-15T03:46:50.802Z,6.16
2022-10-15T03:48:55.880Z,6.19
2022-10-15T03:51:01.184Z,6.21
2022-10-15T03:53:06.305Z,6.22
2022-10-15T03:55:11.443Z,6.23
2022-10-15T03:57:16.789Z,6.24
2022-10-15T03:59:21.973Z,6.29
2022-10-15T04:01:27.269Z,6.31
2022-10-15T04:03:32.675Z,6.34
2022-10-15T04:05:37.662Z,6.34
2022-10-15T04:07:42.948Z,6.34
2022-10-15T04:09:48.057Z,6.34
2022-10-15T04:11:53.198Z,6.37
2022-10-15T04:14:01.773Z,6.39
2022-10-15T04:16:06.742Z,6.41
2022-10-15T04:18:12.075Z,6.43
2022-10-15T04:20:19.660Z,6.44
2022-10-15T04:22:25.339Z,6.47
2022-10-15T04:24:31.029Z,6.48
2022-10-15T04:26:36.405Z,6.53
2022-10-15T04:28:41.765Z,6.56
2022-10-15T04:30:47.217Z,6.58
2022-10-15T04:32:53.338Z,6.51
2022-10-15T04:34:58.566Z,6.49
2022-10-15T04:37:03.705Z,6.51
2022-10-15T04:39:14.474Z,6.52
2022-10-15T04:41:19.918Z,6.49
2022-10-15T04:43:25.469Z,6.49
2022-10-15T04:45:30.719Z,6.47
2022-10-15T04:47:35.948Z,6.48
2022-10-15T04:49:43.399Z,6.51
2022-10-15T04:51:49.681Z,6.55
2022-10-15T04:53:54.801Z,6.55
2022-10-15T04:55:59.849Z,6.55
2022-10-15T04:58:05.107Z,6.57
2022-10-15T05:00:10.402Z,6.59
2022-10-15T05:02:16.029Z,6.61
2022-10-15T05:04:21.609Z,6.66
2022-10-15T05:06:27.682Z,6.72
2022-10-15T05:08:32.969Z,6.72
2022-10-15T05:10:37.983Z,6.71
2022-10-15T05:12:43.193Z,6.71
2022-10-15T05:14:52.175Z,6.7
2022-10-15T05:16:57.596Z,6.66
2022-10-15T05:19:03.810Z,6.7
2022-10-15T05:21:09.014Z,6.74
2022-10-15T05:23:14.361Z,6.77
2022-10-15T05:25:22.774Z,6.73
2022-10-15T05:27:27.838Z,6.81
2022-10-15T05:29:32.921Z,6.91
2022-10-15T05:31:38.196Z,7.01
2022-10-15T05:33:43.547Z,7.07
2022-10-15T05:35:48.675Z,7.16
2022-10-15T05:37:53.752Z,7.26
2022-10-15T05:39:59.858Z,7.36
2022-10-15T05:42:08.842Z,7.44
2022-10-15T05:44:15.113Z,7.49
2022-10-15T05:46:24.701Z,7.69
2022-10-15T05:48:30.158Z,7.8
2022-10-15T05:50:35.319Z,7.8
2022-10-15T05:52:41.706Z,7.84
2022-10-15T05:54:47.178Z,7.88
2022-10-15T05:56:53.499Z,7.96
2022-10-15T05:58:58.887Z,8
2022-10-15T06:01:04.184Z,8.05
2022-10-15T06:03:09.418Z,8.06
2022-10-15T06:05:15.011Z,8.16
2022-10-15T06:07:20.446Z,8.14
2022-10-15T06:09:27.850Z,8.1
2022-10-15T06:11:37.274Z,8.12
2022-10-15T06:13:43.905Z,8.22
2022-10-15T06:15:49.322Z,8.31
2022-10-15T06:17:55.792Z,8.33
2022-10-15T06:20:03.542Z,8.38
2022-10-15T06:22:09.925Z,8.45
2022-10-15T06:24:15.243Z,8.46
2022-10-15T06:26:20.768Z,8.56
2022-10-15T06:28:26.480Z,8.64
2022-10-15T06:30:32.884Z,8.74
2022-10-15T06:32:39.009Z,8.76
2022-10-15T06:34:45.066Z,8.81
2022-10-15T06:36:52.088Z,8.9
2022-10-15T06:38:58.245Z,8.99
2022-10-15T06:41:04.452Z,8.94
2022-10-15T06:43:10.568Z,8.98
2022-10-15T06:45:18.201Z,9.04
2022-10-15T06:47:27.242Z,9.1
2022-10-15T06:49:32.560Z,9.12
2022-10-15T06:51:38.201Z,9.17
2022-10-15T06:53:44.547Z,9.15
2022-10-15T06:55:50.456Z,9.23
2022-10-15T06:57:56.597Z,9.46
2022-10-15T07:00:02.127Z,9.58
2022-10-15T07:02:08.229Z,9.67
2022-10-15T07:04:13.603Z,9.7
2022-10-15T07:06:19.156Z,9.82
2022-10-15T07:08:25.332Z,10.1
2022-10-15T07:10:31.473Z,10.09
2022-10-15T07:12:37.660Z,10.2
2022-10-15T07:14:43.790Z,10.28
2022-10-15T07:16:50.080Z,10.43
2022-10-15T07:18:57.570Z,10.58
2022-10-15T07:21:04.217Z,10.68
2022-10-15T07:23:10.988Z,10.87
2022-10-15T07:25:17.178Z,10.99
2022-10-15T07:27:23.847Z,11.1
2022-10-15T07:29:29.906Z,11.1
2022-10-15T07:31:37.423Z,11.11
2022-10-15T07:33:44.010Z,11.13
2022-10-15T07:35:50.657Z,11.23
2022-10-15T07:37:58.830Z,11.26
2022-10-15T07:40:05.261Z,11.29
2022-10-15T07:44:18.771Z,11.4
2022-10-15T07:46:25.090Z,11.44
2022-10-15T07:48:31.335Z,11.49
2022-10-15T07:50:40.375Z,11.58
2022-10-15T07:52:47.183Z,11.67
2022-10-15T07:54:53.073Z,11.69
2022-10-15T07:56:59.151Z,11.78
2022-10-15T07:59:05.591Z,11.82
2022-10-15T08:01:11.854Z,11.94
2022-10-15T08:03:18.390Z,12.11
2022-10-15T08:05:24.634Z,12.15
2022-10-15T08:07:31.000Z,12.29
2022-10-15T08:09:38.021Z,12.35
2022-10-15T08:11:44.884Z,12.39
2022-10-15T08:13:50.832Z,12.49
2022-10-15T08:15:57.870Z,12.54
2022-10-15T08:18:06.440Z,12.64
2022-10-15T08:20:13.808Z,12.8
2022-10-15T08:22:20.634Z,12.94
2022-10-15T08:24:29.194Z,13.06
2022-10-15T08:26:35.861Z,13.17
2022-10-15T08:28:42.024Z,13.26
2022-10-15T08:30:49.402Z,13.47
2022-10-15T08:32:55.778Z,13.67
2022-10-15T08:35:02.002Z,13.71
2022-10-15T08:37:08.845Z,13.95
2022-10-15T08:39:15.374Z,13.97
2022-10-15T08:41:21.804Z,14.08
2022-10-15T08:43:27.939Z,14.34
2022-10-15T08:45:34.098Z,14.67
2022-10-15T08:47:40.531Z,14.85
2022-10-15T08:49:46.210Z,14.94
2022-10-15T08:51:52.551Z,15.33
2022-10-15T08:53:59.098Z,15.89
2022-10-15T08:56:05.753Z,16.2
2022-10-15T08:58:13.272Z,16.78
2022-10-15T09:00:19.721Z,17.07
2022-10-15T09:02:26.710Z,17.16
2022-10-15T09:04:33.682Z,16.66
2022-10-15T09:06:40.934Z,16.03
2022-10-15T09:08:47.935Z,15.92
2022-10-15T09:10:54.231Z,15.85
2022-10-15T09:13:00.604Z,15.84
2022-10-15T09:15:07.352Z,15.89
2022-10-15T09:17:13.450Z,16.03
2022-10-15T09:19:19.826Z,15.8
2022-10-15T09:21:26.304Z,15.68
2022-10-15T09:23:32.690Z,15.78
2022-10-15T09:25:38.816Z,15.98
2022-10-15T09:27:45.295Z,16.32
2022-10-15T09:29:51.414Z,16.41
2022-10-15T09:34:03.883Z,16.71
2022-10-15T09:36:10.143Z,16.63
2022-10-15T09:38:16.212Z,16.65
2022-10-15T09:40:22.223Z,16.47
2022-10-15T09:42:28.317Z,16.49
2022-10-15T09:44:34.554Z,16.34
2022-10-15T09:46:40.767Z,16.4
2022-10-15T09:48:46.774Z,16.42
2022-10-15T09:50:53.138Z,16.02
2022-10-15T09:52:59.127Z,16.05
2022-10-15T09:55:05.353Z,15.87
2022-10-15T09:57:11.881Z,16
2022-10-15T09:59:18.526Z,15.9
2022-10-15T10:01:25.170Z,15.82
2022-10-15T10:03:31.403Z,15.9
2022-10-15T10:05:38.153Z,15.71
2022-10-15T10:07:45.309Z,15.68
2022-10-15T10:09:51.810Z,15.77
2022-10-15T10:11:58.554Z,15.81
2022-10-15T10:14:05.132Z,15.75
2022-10-15T10:16:11.665Z,15.86
2022-10-15T10:18:17.868Z,16.04
2022-10-15T10:20:24.241Z,16.11
2022-10-15T10:22:31.601Z,16.23
2022-10-15T10:24:37.823Z,16.63
2022-10-15T10:26:44.313Z,17.31
2022-10-15T10:28:50.665Z,18.09
2022-10-15T10:31:24.496Z,18.92
2022-10-15T10:33:31.054Z,19.41
2022-10-15T10:35:37.404Z,20.46
2022-10-15T10:37:44.027Z,20.56
2022-10-15T10:39:50.048Z,20.22
2022-10-15T10:41:56.450Z,20.65
2022-10-15T10:44:02.984Z,21.09
2022-10-15T10:46:09.157Z,20.52
2022-10-15T10:48:15.699Z,20.47
2022-10-15T10:50:21.816Z,20.77
2022-10-15T10:52:28.337Z,21.78
2022-10-15T10:54:34.502Z,21.81
2022-10-15T10:56:41.729Z,21.38
2022-10-15T10:58:48.171Z,21.89
2022-10-15T11:00:54.755Z,22.16
2022-10-15T11:03:01.246Z,21.37
2022-10-15T11:05:07.701Z,20.72
2022-10-15T11:07:13.805Z,21.31
2022-10-15T11:09:20.766Z,21.79
2022-10-15T11:11:27.699Z,21.12
2022-10-15T11:13:33.989Z,21.23
2022-10-15T11:15:39.972Z,20.14
2022-10-15T11:17:46.164Z,20.08
2022-10-15T11:20:12.850Z,19.7
2022-10-15T11:23:02.903Z,19.51
2022-10-15T11:25:08.787Z,19.39
2022-10-15T11:27:15.433Z,19.25
2022-10-15T11:29:21.677Z,19.36
2022-10-15T11:31:27.482Z,19.29
2022-10-15T11:33:42.642Z,19.23
2022-10-15T11:35:53.178Z,19.57
2022-10-15T11:37:59.803Z,20.13
2022-10-15T11:40:05.845Z,19.98
2022-10-15T11:42:11.920Z,19.41
2022-10-15T11:44:18.235Z,19.26
2022-10-15T11:46:24.619Z,19.25
2022-10-15T11:48:31.731Z,19.41
2022-10-15T11:50:38.706Z,19.24
2022-10-15T11:52:44.988Z,19.31
2022-10-15T11:54:51.570Z,19.52
2022-10-15T11:56:58.422Z,19.46
2022-10-15T11:59:04.669Z,19.39
2022-10-15T12:01:10.978Z,19.32
2022-10-15T12:03:17.299Z,19.19
2022-10-15T12:05:23.846Z,19.28
2022-10-15T12:07:30.316Z,19.63
2022-10-15T12:09:36.532Z,19.44
2022-10-15T12:11:42.507Z,19.31
2022-10-15T12:13:48.819Z,19.4
2022-10-15T12:15:55.406Z,19.11
2022-10-15T12:18:01.674Z,19.11
2022-10-15T12:20:08.422Z,19.23
2022-10-15T12:22:15.123Z,19.18
2022-10-15T12:24:21.304Z,18.86
2022-10-15T12:26:27.855Z,18.87
2022-10-15T12:28:34.365Z,18.8
2022-10-15T12:30:41.186Z,18.8
2022-10-15T12:32:47.539Z,18.79
2022-10-15T12:34:53.734Z,18.72
2022-10-15T12:36:59.903Z,18.68
2022-10-15T12:39:08.906Z,18.7
2022-10-15T12:42:03.824Z,18.58
2022-10-15T12:44:09.983Z,18.51
2022-10-15T12:46:17.009Z,18.54
2022-10-15T12:48:23.103Z,18.5
2022-10-15T12:50:29.981Z,18.63
2022-10-15T12:52:37.310Z,18.75
2022-10-15T12:54:43.383Z,19
2022-10-15T12:56:49.653Z,19.14
2022-10-15T12:58:56.182Z,19.14
2022-10-15T13:01:02.627Z,19.14
2022-10-15T13:03:09.631Z,19.01
2022-10-15T13:05:15.899Z,18.95
2022-10-15T13:07:22.585Z,18.77
2022-10-15T13:09:30.263Z,18.82
2022-10-15T13:11:36.839Z,18.7
2022-10-15T13:13:43.579Z,18.67
2022-10-15T13:15:51.959Z,18.67
2022-10-15T13:18:02.049Z,18.7
2022-10-15T13:20:08.772Z,18.58
2022-10-15T13:22:15.145Z,18.63
2022-10-15T13:24:21.472Z,18.6
2022-10-15T13:26:27.943Z,18.5
2022-10-15T13:28:34.244Z,18.57
2022-10-15T13:30:41.428Z,18.56
2022-10-15T13:32:48.015Z,18.52
2022-10-15T13:34:54.378Z,18.35
2022-10-15T13:37:00.785Z,18.36
2022-10-15T13:39:08.090Z,18.18
2022-10-15T13:41:14.349Z,18.16
2022-10-15T13:43:21.282Z,18.15
2022-10-15T13:45:27.524Z,18.29
2022-10-15T13:47:34.277Z,18.24
2022-10-15T13:49:40.788Z,18.23
2022-10-15T13:51:46.743Z,18.14
2022-10-15T13:53:53.209Z,18.19
2022-10-15T13:55:59.667Z,18.21
2022-10-15T13:58:06.623Z,18.12
2022-10-15T14:00:13.018Z,18.06
2022-10-15T14:02:19.352Z,18.01
2022-10-15T14:04:26.765Z,17.88
2022-10-15T14:06:33.088Z,17.85
2022-10-15T14:08:39.583Z,17.73
2022-10-15T14:10:46.097Z,17.7
2022-10-15T14:12:52.240Z,17.68
2022-10-15T14:14:59.256Z,17.69
2022-10-15T14:17:06.191Z,17.6
2022-10-15T14:19:12.423Z,17.64
2022-10-15T14:21:19.407Z,17.57
2022-10-15T14:23:25.944Z,17.63
2022-10-15T14:25:32.104Z,17.61
2022-10-15T14:27:38.606Z,17.76
2022-10-15T14:29:45.027Z,17.89
2022-10-15T14:31:51.515Z,17.91
2022-10-15T14:33:58.098Z,17.9
2022-10-15T14:36:04.486Z,17.94
2022-10-15T14:38:10.570Z,17.89
2022-10-15T14:40:16.690Z,17.76
2022-10-15T14:42:23.223Z,17.58
2022-10-15T14:44:29.849Z,17.5
2022-10-15T14:46:36.632Z,17.52
2022-10-15T14:48:42.738Z,17.49
2022-10-15T14:50:49.142Z,17.39
2022-10-15T14:52:55.535Z,17.27
2022-10-15T14:55:01.849Z,17.13
2022-10-15T14:57:13.810Z,17.05
2022-10-15T14:59:20.126Z,16.99
2022-10-15T15:01:26.117Z,16.95
2022-10-15T15:03:32.438Z,16.8
2022-10-15T15:05:38.694Z,16.56
2022-10-15T15:07:45.197Z,16.48
2022-10-15T15:09:52.193Z,16.39
2022-10-15T15:11:58.567Z,16.26
2022-10-15T15:14:04.774Z,16.11
2022-10-15T15:16:11.384Z,15.99
2022-10-15T15:18:17.515Z,15.89
2022-10-15T15:20:23.856Z,15.79
2022-10-15T15:22:30.246Z,15.7
2022-10-15T15:24:36.673Z,15.56
2022-10-15T15:26:42.816Z,15.47
2022-10-15T15:28:48.888Z,15.45
2022-10-15T15:30:55.404Z,15.4
2022-10-15T15:33:01.842Z,15.35
2022-10-15T15:35:08.350Z,15.26
2022-10-15T15:37:14.516Z,15.15
2022-10-15T15:39:21.722Z,15.13
2022-10-15T15:41:28.164Z,15.09
2022-10-15T15:43:34.527Z,15.03
2022-10-15T15:45:41.422Z,14.98
2022-10-15T15:47:47.530Z,14.92
2022-10-15T15:49:54.200Z,14.9
2022-10-15T15:52:01.352Z,14.89
2022-10-15T15:54:07.817Z,14.88
2022-10-15T15:56:14.669Z,14.83
2022-10-15T15:58:22.213Z,14.78
2022-10-15T16:00:28.547Z,14.74
2022-10-15T16:02:37.152Z,14.73
2022-10-15T16:04:44.536Z,14.72
2022-10-15T16:06:51.103Z,14.72
2022-10-15T16:08:58.102Z,14.67
2022-10-15T16:11:05.200Z,14.61
2022-10-15T16:13:12.417Z,14.64
2022-10-15T16:15:19.604Z,14.64
2022-10-15T16:17:26.654Z,14.6
2022-10-15T16:19:33.935Z,14.58
2022-10-15T16:21:41.580Z,14.59
2022-10-15T16:23:48.400Z,14.56
2022-10-15T16:25:57.541Z,14.56
2022-10-15T16:28:04.552Z,14.53
2022-10-15T16:30:11.193Z,14.53
2022-10-15T16:32:17.978Z,14.51
2022-10-15T16:34:25.000Z,14.68
2022-10-15T16:36:32.063Z,14.69
2022-10-15T16:38:38.754Z,14.67
2022-10-15T16:40:46.063Z,14.64
2022-10-15T16:42:52.942Z,14.52
2022-10-15T16:45:00.048Z,14.66
2022-10-15T16:47:09.712Z,14.77
2022-10-15T16:49:16.304Z,14.68
2022-10-15T16:51:24.341Z,14.64
2022-10-15T16:53:32.122Z,14.58
2022-10-15T16:55:39.402Z,14.54
2022-10-15T16:57:47.026Z,14.54
2022-10-15T16:59:55.177Z,14.58
2022-10-15T17:02:02.889Z,14.59
2022-10-15T17:04:11.739Z,14.56
2022-10-15T17:06:20.376Z,14.5
2022-10-15T17:08:29.106Z,14.49
2022-10-15T17:10:42.721Z,14.48
2022-10-15T17:12:52.478Z,14.41
2022-10-15T17:15:00.340Z,14.34
2022-10-15T17:17:07.822Z,14.26
2022-10-15T17:19:15.453Z,14.2
2022-10-15T17:21:22.123Z,14.11
2022-10-15T17:23:29.758Z,13.99
2022-10-15T17:25:36.901Z,13.89
2022-10-15T17:27:44.933Z,13.81
2022-10-15T17:29:54.087Z,13.75
2022-10-15T17:32:00.905Z,13.65
2022-10-15T17:34:10.479Z,13.55
2022-10-15T17:36:19.140Z,13.54
2022-10-15T17:38:28.544Z,13.47
2022-10-15T17:40:35.094Z,13.43
2022-10-15T17:42:42.696Z,13.39
2022-10-15T17:44:50.787Z,13.36
2022-10-15T17:46:58.463Z,13.3
2022-10-15T17:49:05.609Z,13.3
2022-10-15T17:51:13.537Z,13.28
2022-10-15T17:53:22.908Z,13.39
2022-10-15T17:55:34.350Z,13.4
2022-10-15T17:57:42.246Z,13.35
2022-10-15T17:59:50.421Z,13.28
2022-10-15T18:02:00.087Z,13.2
2022-10-15T18:04:12.352Z,13.17
2022-10-15T18:06:19.930Z,13.12
2022-10-15T18:08:27.862Z,13.02
2022-10-15T18:10:37.962Z,12.93
2022-10-15T18:12:45.562Z,12.78
2022-10-15T18:14:54.279Z,12.7
2022-10-15T18:17:02.348Z,12.59
2022-10-15T18:19:10.241Z,12.55
2022-10-15T18:21:21.238Z,12.45
2022-10-15T18:25:51.902Z,12.28
2022-10-15T18:28:01.735Z,12.22
2022-10-15T18:30:13.030Z,12.14
2022-10-15T18:32:29.780Z,12.14
2022-10-15T18:34:39.333Z,12.12
2022-10-15T18:36:47.817Z,12.08
2022-10-15T18:39:06.194Z,12.03
2022-10-15T18:41:14.592Z,12.12
2022-10-15T18:43:22.535Z,12.11
2022-10-15T18:45:30.380Z,12.14
2022-10-15T18:47:38.487Z,12.17
2022-10-15T18:49:50.036Z,12.23
2022-10-15T18:52:06.355Z,12.25
2022-10-15T18:54:45.185Z,12.31
2022-10-15T18:56:54.426Z,12.31
2022-10-15T18:59:05.143Z,12.36
2022-10-15T19:01:13.406Z,12.36
2022-10-15T19:03:31.574Z,12.38
2022-10-15T19:05:39.536Z,12.42
2022-10-15T19:07:52.428Z,12.46
2022-10-15T19:10:01.256Z,12.5
2022-10-15T19:12:10.641Z,12.54
2022-10-15T19:14:17.964Z,12.56
2022-10-15T19:16:26.341Z,12.59
2022-10-15T19:18:33.573Z,12.61
2022-10-15T19:20:41.705Z,12.64
2022-10-15T19:22:52.558Z,12.64
2022-10-15T19:25:00.602Z,12.67
2022-10-15T19:29:17.736Z,12.79
2022-10-15T19:31:26.028Z,12.85
2022-10-15T19:33:34.146Z,12.89
2022-10-15T19:35:45.265Z,13.02
2022-10-15T19:37:52.682Z,13.14
2022-10-15T19:40:00.727Z,13.13
2022-10-15T19:42:08.758Z,13.07
2022-10-15T19:44:18.480Z,13.02
2022-10-15T19:46:29.158Z,12.95
2022-10-15T19:48:39.967Z,12.92
2022-10-15T19:50:47.336Z,12.87
2022-10-15T19:52:55.075Z,12.83
2022-10-15T19:55:04.276Z,12.84
2022-10-15T19:57:11.226Z,12.87
2022-10-15T19:59:19.146Z,12.89
2022-10-15T20:01:28.023Z,12.85
2022-10-15T20:03:38.361Z,12.84
2022-10-15T20:05:46.467Z,12.78
2022-10-15T20:07:54.935Z,12.91
2022-10-15T20:10:06.015Z,12.9
2022-10-15T20:12:13.191Z,12.87
2022-10-15T20:14:22.076Z,12.83
2022-10-15T20:16:33.038Z,12.81
2022-10-15T20:18:40.604Z,12.81
2022-10-15T20:20:47.698Z,12.78
2022-10-15T20:22:54.400Z,12.74
2022-10-15T20:25:01.799Z,12.71
2022-10-15T20:27:08.971Z,12.62
2022-10-15T20:29:15.921Z,12.55
2022-10-15T20:31:23.324Z,12.48
2022-10-15T20:33:30.558Z,12.47
2022-10-15T20:35:37.406Z,12.44
2022-10-15T20:37:45.035Z,12.46
2022-10-15T20:39:51.823Z,12.42
2022-10-15T20:42:00.857Z,12.39
2022-10-15T20:44:07.492Z,12.38
2022-10-15T20:46:16.383Z,12.37
2022-10-15T20:48:23.127Z,12.4
2022-10-15T20:50:30.021Z,12.47
2022-10-15T20:52:36.269Z,12.66
2022-10-15T20:54:42.876Z,12.75
2022-10-15T20:56:49.600Z,12.71
2022-10-15T20:58:56.703Z,12.72
2022-10-15T21:01:03.652Z,12.72
2022-10-15T21:03:10.455Z,12.7
2022-10-15T21:05:17.079Z,12.64
2022-10-15T21:07:23.652Z,12.61
2022-10-15T21:09:30.398Z,12.57
2022-10-15T21:11:36.712Z,12.59
2022-10-15T21:13:43.035Z,12.73
2022-10-15T21:15:49.125Z,12.76
2022-10-15T21:17:56.362Z,12.94
2022-10-15T21:20:03.142Z,12.86
2022-10-15T21:22:09.928Z,12.83
2022-10-15T21:24:17.553Z,12.77
2022-10-15T21:26:23.922Z,12.67
2022-10-15T21:28:31.279Z,12.61
2022-10-15T21:30:37.577Z,12.52
2022-10-15T21:32:44.137Z,12.47
2022-10-15T21:34:51.302Z,12.45
2022-10-15T21:36:56.815Z,12.41
2022-10-15T21:39:02.987Z,12.4
2022-10-15T21:41:10.491Z,12.41
2022-10-15T21:43:16.120Z,12.41
2022-10-15T21:45:22.643Z,12.4
2022-10-15T21:47:28.647Z,12.39
2022-10-15T21:49:35.166Z,12.41
2022-10-15T21:51:41.984Z,12.38
2022-10-15T21:53:48.201Z,12.37
2022-10-15T21:55:54.588Z,12.37
2022-10-15T21:58:01.054Z,12.38
2022-10-15T22:00:07.300Z,12.39
2022-10-15T22:02:13.497Z,12.39
2022-10-15T22:04:19.242Z,12.56
2022-10-15T22:06:25.215Z,12.81
2022-10-15T22:08:30.938Z,12.95
2022-10-15T22:10:37.128Z,13.04
2022-10-15T22:12:43.194Z,12.98
2022-10-15T22:14:49.117Z,12.93
2022-10-15T22:16:55.614Z,12.92
2022-10-15T22:19:01.695Z,12.89
2022-10-15T22:21:08.567Z,12.81
2022-10-15T22:23:14.724Z,12.75
2022-10-15T22:25:19.850Z,12.72
2022-10-15T22:27:25.204Z,12.68
2022-10-15T22:29:31.836Z,12.66
2022-10-15T22:31:41.726Z,12.65
2022-10-15T22:33:47.169Z,12.63
2022-10-15T22:35:52.590Z,12.74
2022-10-15T22:37:58.552Z,12.75
2022-10-15T22:40:03.973Z,12.75
2022-10-15T22:42:09.401Z,12.76
2022-10-15T22:44:15.035Z,12.77
2022-10-15T22:46:20.408Z,12.86
2022-10-15T22:48:25.743Z,12.9
2022-10-15T22:50:31.314Z,12.92
2022-10-15T22:52:36.975Z,12.89
2022-10-15T22:54:42.193Z,12.85
2022-10-15T22:56:47.487Z,12.85
2022-10-15T22:58:52.606Z,12.81
2022-10-15T23:00:57.984Z,12.83
2022-10-15T23:03:03.407Z,12.85
2022-10-15T23:05:08.764Z,12.86
2022-10-15T23:07:13.901Z,12.83
2022-10-15T23:09:18.998Z,12.82
2022-10-15T23:11:27.221Z,12.84
2022-10-15T23:13:32.420Z,12.86
2022-10-15T23:15:37.499Z,12.86
2022-10-15T23:17:42.782Z,12.84
2022-10-15T23:19:48.179Z,12.82
2022-10-15T23:21:53.272Z,12.79
2022-10-15T23:23:58.627Z,12.8
2022-10-15T23:26:03.953Z,12.77
2022-10-15T23:28:09.461Z,12.74
2022-10-15T23:30:24.242Z,12.72
2022-10-15T23:32:29.961Z,12.73
2022-10-15T23:34:35.635Z,12.68
2022-10-15T23:36:41.073Z,12.69
2022-10-15T23:38:46.440Z,12.68
2022-10-15T23:40:51.766Z,12.64
2022-10-15T23:42:57.760Z,12.6
2022-10-15T23:45:02.906Z,12.59
2022-10-15T23:47:08.355Z,12.61
2022-10-15T23:49:13.547Z,12.63
2022-10-15T23:51:18.662Z,12.66
2022-10-15T23:53:24.295Z,12.7
2022-10-15T23:55:29.517Z,12.72
2022-10-15T23:57:34.954Z,12.74
2022-10-15T23:59:40.340Z,12.74
